sensor_id;sensor_type;location;lat;lon;timestamp;temperature;humidity
65034;DHT22;51601;51.356;12.458;2023-03-01T00:03:12;-1.60;89.70
65034;DHT22;51601;51.356;12.458;2023-03-01T00:07:30;-1.60;89.70
65034;DHT22;51601;51.356;12.458;2023-03-01T00:11:49;-1.60;89.70
65034;DHT22;51601;51.356;12.458;2023-03-01T00:16:10;-1.60;89.60
65034;DHT22;51601;51.356;12.458;2023-03-01T00:20:30;-1.60;89.70
65034;DHT22;51601;51.356;12.458;2023-03-01T00:24:48;-1.70;89.70
65034;DHT22;51601;51.356;12.458;2023-03-01T00:29:08;-1.70;89.90
65034;DHT22;51601;51.356;12.458;2023-03-01T00:33:27;-1.70;90.10
65034;DHT22;51601;51.356;12.458;2023-03-01T00:37:45;-1.70;90.20
65034;DHT22;51601;51.356;12.458;2023-03-01T00:42:03;-1.80;90.30
65034;DHT22;51601;51.356;12.458;2023-03-01T00:46:24;-1.80;90.30
65034;DHT22;51601;51.356;12.458;2023-03-01T00:50:42;-1.80;90.30
65034;DHT22;51601;51.356;12.458;2023-03-01T00:55:00;-1.90;90.40
65034;DHT22;51601;51.356;12.458;2023-03-01T00:59:19;-1.90;90.50
65034;DHT22;51601;51.356;12.458;2023-03-01T01:03:38;-1.90;90.60
65034;DHT22;51601;51.356;12.458;2023-03-01T01:07:58;-2.00;90.60
65034;DHT22;51601;51.356;12.458;2023-03-01T01:12:16;-2.00;90.70
65034;DHT22;51601;51.356;12.458;2023-03-01T01:16:34;-2.10;90.80
65034;DHT22;51601;51.356;12.458;2023-03-01T01:20:53;-2.10;90.90
65034;DHT22;51601;51.356;12.458;2023-03-01T01:25:13;-2.10;90.90
65034;DHT22;51601;51.356;12.458;2023-03-01T01:29:31;-2.20;91.10
65034;DHT22;51601;51.356;12.458;2023-03-01T01:33:49;-2.30;91.30
65034;DHT22;51601;51.356;12.458;2023-03-01T01:38:09;-2.30;91.40
65034;DHT22;51601;51.356;12.458;2023-03-01T01:42:28;-2.30;91.50
65034;DHT22;51601;51.356;12.458;2023-03-01T01:46:49;-2.40;91.50
65034;DHT22;51601;51.356;12.458;2023-03-01T01:51:12;-2.30;91.70
65034;DHT22;51601;51.356;12.458;2023-03-01T01:55:35;-2.50;91.90
65034;DHT22;51601;51.356;12.458;2023-03-01T01:59:57;-2.50;92.20
65034;DHT22;51601;51.356;12.458;2023-03-01T02:04:17;-2.50;92.40
65034;DHT22;51601;51.356;12.458;2023-03-01T02:08:38;-2.50;92.60
65034;DHT22;51601;51.356;12.458;2023-03-01T02:13:02;-2.50;92.80
65034;DHT22;51601;51.356;12.458;2023-03-01T02:17:21;-2.50;93.00
65034;DHT22;51601;51.356;12.458;2023-03-01T02:21:44;-2.50;93.10
65034;DHT22;51601;51.356;12.458;2023-03-01T02:26:10;-2.50;93.00
65034;DHT22;51601;51.356;12.458;2023-03-01T02:30:32;-2.60;93.00
65034;DHT22;51601;51.356;12.458;2023-03-01T02:34:52;-2.60;93.20
65034;DHT22;51601;51.356;12.458;2023-03-01T02:39:15;-2.60;93.30
65034;DHT22;51601;51.356;12.458;2023-03-01T02:43:34;-2.70;93.40
65034;DHT22;51601;51.356;12.458;2023-03-01T02:47:57;-2.70;93.60
65034;DHT22;51601;51.356;12.458;2023-03-01T02:52:33;-2.70;93.80
65034;DHT22;51601;51.356;12.458;2023-03-01T02:56:59;-2.80;94.00
65034;DHT22;51601;51.356;12.458;2023-03-01T03:01:27;-2.70;94.30
65034;DHT22;51601;51.356;12.458;2023-03-01T03:06:02;-2.70;94.70
65034;DHT22;51601;51.356;12.458;2023-03-01T03:10:27;-2.70;94.50
65034;DHT22;51601;51.356;12.458;2023-03-01T03:14:52;-2.70;94.50
65034;DHT22;51601;51.356;12.458;2023-03-01T03:19:17;-2.70;94.50
65034;DHT22;51601;51.356;12.458;2023-03-01T03:23:42;-2.80;94.40
65034;DHT22;51601;51.356;12.458;2023-03-01T03:28:07;-2.80;94.30
65034;DHT22;51601;51.356;12.458;2023-03-01T03:32:33;-2.90;94.20
65034;DHT22;51601;51.356;12.458;2023-03-01T03:36:57;-3.00;94.20
65034;DHT22;51601;51.356;12.458;2023-03-01T03:41:23;-3.00;94.30
65034;DHT22;51601;51.356;12.458;2023-03-01T03:45:48;-3.10;94.30
65034;DHT22;51601;51.356;12.458;2023-03-01T03:50:14;-3.20;94.40
65034;DHT22;51601;51.356;12.458;2023-03-01T03:54:39;-3.20;94.80
65034;DHT22;51601;51.356;12.458;2023-03-01T03:59:05;-3.20;95.10
65034;DHT22;51601;51.356;12.458;2023-03-01T04:03:30;-3.20;95.20
65034;DHT22;51601;51.356;12.458;2023-03-01T04:07:54;-3.30;95.40
65034;DHT22;51601;51.356;12.458;2023-03-01T04:12:24;-3.30;95.40
65034;DHT22;51601;51.356;12.458;2023-03-01T04:16:49;-3.40;95.50
65034;DHT22;51601;51.356;12.458;2023-03-01T04:21:13;-3.40;95.70
65034;DHT22;51601;51.356;12.458;2023-03-01T04:25:39;-3.40;95.90
65034;DHT22;51601;51.356;12.458;2023-03-01T04:30:12;-3.40;96.10
65034;DHT22;51601;51.356;12.458;2023-03-01T04:34:39;-3.40;96.20
65034;DHT22;51601;51.356;12.458;2023-03-01T04:39:03;-3.50;96.40
65034;DHT22;51601;51.356;12.458;2023-03-01T04:43:35;-3.60;96.50
65034;DHT22;51601;51.356;12.458;2023-03-01T04:48:00;-3.50;96.70
65034;DHT22;51601;51.356;12.458;2023-03-01T04:52:26;-3.60;97.00
65034;DHT22;51601;51.356;12.458;2023-03-01T04:56:50;-3.60;97.20
65034;DHT22;51601;51.356;12.458;2023-03-01T05:01:16;-3.60;97.50
65034;DHT22;51601;51.356;12.458;2023-03-01T05:05:41;-3.60;97.60
65034;DHT22;51601;51.356;12.458;2023-03-01T05:10:11;-3.60;97.70
65034;DHT22;51601;51.356;12.458;2023-03-01T05:14:35;-3.60;97.90
65034;DHT22;51601;51.356;12.458;2023-03-01T05:19:01;-3.60;98.10
65034;DHT22;51601;51.356;12.458;2023-03-01T05:23:34;-3.60;98.30
65034;DHT22;51601;51.356;12.458;2023-03-01T05:28:01;-3.60;98.40
65034;DHT22;51601;51.356;12.458;2023-03-01T05:32:27;-3.60;98.50
65034;DHT22;51601;51.356;12.458;2023-03-01T05:36:54;-3.70;98.70
65034;DHT22;51601;51.356;12.458;2023-03-01T05:41:21;-3.70;98.80
65034;DHT22;51601;51.356;12.458;2023-03-01T05:45:46;-3.70;99.00
65034;DHT22;51601;51.356;12.458;2023-03-01T05:50:12;-3.70;99.20
65034;DHT22;51601;51.356;12.458;2023-03-01T05:54:37;-3.70;99.30
65034;DHT22;51601;51.356;12.458;2023-03-01T05:59:01;-3.70;99.50
65034;DHT22;51601;51.356;12.458;2023-03-01T06:03:27;-3.70;99.70
65034;DHT22;51601;51.356;12.458;2023-03-01T06:07:51;-3.70;99.90
65034;DHT22;51601;51.356;12.458;2023-03-01T06:12:16;-3.70;99.90
65034;DHT22;51601;51.356;12.458;2023-03-01T06:16:40;-3.60;99.90
65034;DHT22;51601;51.356;12.458;2023-03-01T06:21:07;-3.50;99.90
65034;DHT22;51601;51.356;12.458;2023-03-01T06:25:31;-3.50;99.90
65034;DHT22;51601;51.356;12.458;2023-03-01T06:29:56;-3.40;99.90
65034;DHT22;51601;51.356;12.458;2023-03-01T06:34:20;-3.30;99.90
65034;DHT22;51601;51.356;12.458;2023-03-01T06:38:46;-3.20;99.90
65034;DHT22;51601;51.356;12.458;2023-03-01T06:43:10;-3.20;99.90
65034;DHT22;51601;51.356;12.458;2023-03-01T06:47:35;-3.10;99.90
65034;DHT22;51601;51.356;12.458;2023-03-01T06:51:59;-3.00;99.90
65034;DHT22;51601;51.356;12.458;2023-03-01T06:56:25;-2.90;99.90
65034;DHT22;51601;51.356;12.458;2023-03-01T07:00:49;-2.80;99.90
65034;DHT22;51601;51.356;12.458;2023-03-01T07:05:13;-2.70;99.90
65034;DHT22;51601;51.356;12.458;2023-03-01T07:09:37;-2.60;99.90
65034;DHT22;51601;51.356;12.458;2023-03-01T07:14:03;-2.50;99.90
65034;DHT22;51601;51.356;12.458;2023-03-01T07:18:28;-2.30;99.90
65034;DHT22;51601;51.356;12.458;2023-03-01T07:22:52;-2.10;99.90
65034;DHT22;51601;51.356;12.458;2023-03-01T07:27:16;-1.10;99.90
65034;DHT22;51601;51.356;12.458;2023-03-01T07:31:42;0.60;99.90
65034;DHT22;51601;51.356;12.458;2023-03-01T07:36:06;2.40;99.90
65034;DHT22;51601;51.356;12.458;2023-03-01T07:40:31;4.00;99.90
65034;DHT22;51601;51.356;12.458;2023-03-01T07:44:55;5.50;94.70
65034;DHT22;51601;51.356;12.458;2023-03-01T07:49:20;6.90;90.80
65034;DHT22;51601;51.356;12.458;2023-03-01T07:53:46;8.00;75.80
65034;DHT22;51601;51.356;12.458;2023-03-01T07:58:13;8.90;71.40
65034;DHT22;51601;51.356;12.458;2023-03-01T08:02:44;9.50;67.30
65034;DHT22;51601;51.356;12.458;2023-03-01T08:07:09;10.00;63.40
65034;DHT22;51601;51.356;12.458;2023-03-01T08:11:33;10.40;60.70
65034;DHT22;51601;51.356;12.458;2023-03-01T08:16:01;10.80;59.40
65034;DHT22;51601;51.356;12.458;2023-03-01T08:20:25;11.10;58.80
65034;DHT22;51601;51.356;12.458;2023-03-01T08:24:51;11.60;57.80
65034;DHT22;51601;51.356;12.458;2023-03-01T08:29:15;12.20;55.80
65034;DHT22;51601;51.356;12.458;2023-03-01T08:33:39;12.40;52.70
65034;DHT22;51601;51.356;12.458;2023-03-01T08:38:03;12.50;52.00
65034;DHT22;51601;51.356;12.458;2023-03-01T08:42:28;12.60;51.60
65034;DHT22;51601;51.356;12.458;2023-03-01T08:46:52;12.80;50.40
65034;DHT22;51601;51.356;12.458;2023-03-01T08:51:19;12.90;50.90
65034;DHT22;51601;51.356;12.458;2023-03-01T08:55:43;13.00;47.70
65034;DHT22;51601;51.356;12.458;2023-03-01T09:00:10;13.00;47.60
65034;DHT22;51601;51.356;12.458;2023-03-01T09:04:37;12.70;46.30
65034;DHT22;51601;51.356;12.458;2023-03-01T09:09:02;12.50;47.30
65034;DHT22;51601;51.356;12.458;2023-03-01T09:13:27;12.60;47.50
65034;DHT22;51601;51.356;12.458;2023-03-01T09:17:55;12.70;47.80
65034;DHT22;51601;51.356;12.458;2023-03-01T09:22:18;12.80;45.40
65034;DHT22;51601;51.356;12.458;2023-03-01T09:26:43;12.50;43.40
65034;DHT22;51601;51.356;12.458;2023-03-01T09:31:11;11.90;44.90
65034;DHT22;51601;51.356;12.458;2023-03-01T09:35:37;11.70;46.20
65034;DHT22;51601;51.356;12.458;2023-03-01T09:40:12;11.70;47.40
65034;DHT22;51601;51.356;12.458;2023-03-01T09:44:42;11.80;47.40
65034;DHT22;51601;51.356;12.458;2023-03-01T09:49:12;12.00;48.50
65034;DHT22;51601;51.356;12.458;2023-03-01T09:53:43;12.30;48.00
65034;DHT22;51601;51.356;12.458;2023-03-01T09:58:34;12.40;47.60
65034;DHT22;51601;51.356;12.458;2023-03-01T10:03:13;12.70;47.10
65034;DHT22;51601;51.356;12.458;2023-03-01T10:07:45;12.70;46.30
65034;DHT22;51601;51.356;12.458;2023-03-01T10:12:16;12.60;46.20
65034;DHT22;51601;51.356;12.458;2023-03-01T10:16:46;12.40;46.40
65034;DHT22;51601;51.356;12.458;2023-03-01T10:21:15;12.50;47.70
65034;DHT22;51601;51.356;12.458;2023-03-01T10:26:05;12.50;45.40
65034;DHT22;51601;51.356;12.458;2023-03-01T10:30:36;12.30;45.30
65034;DHT22;51601;51.356;12.458;2023-03-01T10:35:16;12.20;45.80
65034;DHT22;51601;51.356;12.458;2023-03-01T10:39:58;12.10;45.50
65034;DHT22;51601;51.356;12.458;2023-03-01T10:44:44;12.10;44.80
65034;DHT22;51601;51.356;12.458;2023-03-01T10:49:15;11.90;43.70
65034;DHT22;51601;51.356;12.458;2023-03-01T10:53:41;11.60;44.80
65034;DHT22;51601;51.356;12.458;2023-03-01T10:58:16;11.60;46.30
65034;DHT22;51601;51.356;12.458;2023-03-01T11:02:42;11.80;46.50
65034;DHT22;51601;51.356;12.458;2023-03-01T11:07:08;11.80;45.70
65034;DHT22;51601;51.356;12.458;2023-03-01T11:11:34;11.70;46.30
65034;DHT22;51601;51.356;12.458;2023-03-01T11:16:00;11.40;46.30
65034;DHT22;51601;51.356;12.458;2023-03-01T11:20:29;11.20;47.10
65034;DHT22;51601;51.356;12.458;2023-03-01T11:24:56;11.10;48.20
65034;DHT22;51601;51.356;12.458;2023-03-01T11:29:37;10.90;47.50
65034;DHT22;51601;51.356;12.458;2023-03-01T11:34:13;10.60;48.20
65034;DHT22;51601;51.356;12.458;2023-03-01T11:38:39;10.40;48.30
65034;DHT22;51601;51.356;12.458;2023-03-01T11:43:12;10.10;48.50
65034;DHT22;51601;51.356;12.458;2023-03-01T11:48:06;9.90;49.30
65034;DHT22;51601;51.356;12.458;2023-03-01T11:52:40;9.70;49.70
65034;DHT22;51601;51.356;12.458;2023-03-01T11:57:20;9.50;49.70
65034;DHT22;51601;51.356;12.458;2023-03-01T12:07:01;8.60;50.40
65034;DHT22;51601;51.356;12.458;2023-03-01T12:11:39;8.20;50.70
65034;DHT22;51601;51.356;12.458;2023-03-01T12:16:18;7.90;51.00
65034;DHT22;51601;51.356;12.458;2023-03-01T12:21:08;7.70;51.30
65034;DHT22;51601;51.356;12.458;2023-03-01T12:25:36;7.50;51.70
65034;DHT22;51601;51.356;12.458;2023-03-01T12:30:16;7.40;52.00
65034;DHT22;51601;51.356;12.458;2023-03-01T12:34:59;7.20;52.40
65034;DHT22;51601;51.356;12.458;2023-03-01T12:39:39;7.00;52.00
65034;DHT22;51601;51.356;12.458;2023-03-01T12:44:29;6.80;53.00
65034;DHT22;51601;51.356;12.458;2023-03-01T12:49:01;6.40;53.80
65034;DHT22;51601;51.356;12.458;2023-03-01T12:53:28;6.20;55.10
65034;DHT22;51601;51.356;12.458;2023-03-01T12:58:04;6.00;56.70
65034;DHT22;51601;51.356;12.458;2023-03-01T13:02:36;5.90;56.00
65034;DHT22;51601;51.356;12.458;2023-03-01T13:11:49;5.60;56.80
65034;DHT22;51601;51.356;12.458;2023-03-01T13:16:41;5.60;56.90
65034;DHT22;51601;51.356;12.458;2023-03-01T13:21:07;5.50;57.40
65034;DHT22;51601;51.356;12.458;2023-03-01T13:25:32;5.50;57.30
65034;DHT22;51601;51.356;12.458;2023-03-01T13:35:42;5.60;57.40
65034;DHT22;51601;51.356;12.458;2023-03-01T13:45:19;5.60;56.10
65034;DHT22;51601;51.356;12.458;2023-03-01T13:49:47;5.70;56.20
65034;DHT22;51601;51.356;12.458;2023-03-01T13:54:16;5.70;55.90
65034;DHT22;51601;51.356;12.458;2023-03-01T13:58:48;5.70;56.10
65034;DHT22;51601;51.356;12.458;2023-03-01T14:03:15;5.80;56.40
65034;DHT22;51601;51.356;12.458;2023-03-01T14:07:39;5.80;56.40
65034;DHT22;51601;51.356;12.458;2023-03-01T14:12:19;5.90;54.80
65034;DHT22;51601;51.356;12.458;2023-03-01T14:16:56;5.90;53.10
65034;DHT22;51601;51.356;12.458;2023-03-01T14:21:22;6.00;52.30
65034;DHT22;51601;51.356;12.458;2023-03-01T14:25:49;6.00;51.70
65034;DHT22;51601;51.356;12.458;2023-03-01T14:30:20;6.00;51.20
65034;DHT22;51601;51.356;12.458;2023-03-01T14:34:46;6.00;51.30
65034;DHT22;51601;51.356;12.458;2023-03-01T14:39:17;6.00;51.30
65034;DHT22;51601;51.356;12.458;2023-03-01T14:43:44;6.00;51.20
65034;DHT22;51601;51.356;12.458;2023-03-01T14:48:12;6.10;51.20
65034;DHT22;51601;51.356;12.458;2023-03-01T14:52:37;6.00;51.40
65034;DHT22;51601;51.356;12.458;2023-03-01T14:57:02;6.00;51.00
65034;DHT22;51601;51.356;12.458;2023-03-01T15:01:26;6.00;51.20
65034;DHT22;51601;51.356;12.458;2023-03-01T15:05:53;6.10;51.60
65034;DHT22;51601;51.356;12.458;2023-03-01T15:10:21;6.10;51.40
65034;DHT22;51601;51.356;12.458;2023-03-01T15:14:45;6.00;51.50
65034;DHT22;51601;51.356;12.458;2023-03-01T15:19:27;6.00;51.90
65034;DHT22;51601;51.356;12.458;2023-03-01T15:23:55;6.00;52.30
65034;DHT22;51601;51.356;12.458;2023-03-01T15:28:20;6.00;52.40
65034;DHT22;51601;51.356;12.458;2023-03-01T15:32:44;6.00;52.10
65034;DHT22;51601;51.356;12.458;2023-03-01T15:37:39;6.00;52.10
65034;DHT22;51601;51.356;12.458;2023-03-01T15:42:06;5.90;51.70
65034;DHT22;51601;51.356;12.458;2023-03-01T15:46:32;5.90;51.90
65034;DHT22;51601;51.356;12.458;2023-03-01T15:50:58;5.80;51.90
65034;DHT22;51601;51.356;12.458;2023-03-01T15:55:25;5.70;52.00
65034;DHT22;51601;51.356;12.458;2023-03-01T15:59:53;5.70;52.70
65034;DHT22;51601;51.356;12.458;2023-03-01T16:04:19;5.70;52.70
65034;DHT22;51601;51.356;12.458;2023-03-01T16:08:46;5.60;52.90
65034;DHT22;51601;51.356;12.458;2023-03-01T16:13:10;5.50;53.10
65034;DHT22;51601;51.356;12.458;2023-03-01T16:17:36;5.50;53.40
65034;DHT22;51601;51.356;12.458;2023-03-01T16:22:00;5.40;53.60
65034;DHT22;51601;51.356;12.458;2023-03-01T16:26:26;5.30;54.00
65034;DHT22;51601;51.356;12.458;2023-03-01T16:30:51;5.20;54.40
65034;DHT22;51601;51.356;12.458;2023-03-01T16:35:18;5.10;54.70
65034;DHT22;51601;51.356;12.458;2023-03-01T16:39:46;5.00;55.90
65034;DHT22;51601;51.356;12.458;2023-03-01T16:44:11;4.90;55.50
65034;DHT22;51601;51.356;12.458;2023-03-01T16:48:38;4.70;55.70
65034;DHT22;51601;51.356;12.458;2023-03-01T16:53:13;4.60;56.00
65034;DHT22;51601;51.356;12.458;2023-03-01T16:57:38;4.50;56.30
65034;DHT22;51601;51.356;12.458;2023-03-01T17:02:03;4.40;56.60
65034;DHT22;51601;51.356;12.458;2023-03-01T17:06:28;4.30;56.90
65034;DHT22;51601;51.356;12.458;2023-03-01T17:10:55;4.20;57.30
65034;DHT22;51601;51.356;12.458;2023-03-01T17:15:25;4.10;57.80
65034;DHT22;51601;51.356;12.458;2023-03-01T17:19:49;4.00;58.00
65034;DHT22;51601;51.356;12.458;2023-03-01T17:24:13;3.90;58.30
65034;DHT22;51601;51.356;12.458;2023-03-01T17:28:39;3.80;58.70
65034;DHT22;51601;51.356;12.458;2023-03-01T17:33:03;3.70;59.00
65034;DHT22;51601;51.356;12.458;2023-03-01T17:37:28;3.60;59.50
65034;DHT22;51601;51.356;12.458;2023-03-01T17:41:52;3.50;59.90
65034;DHT22;51601;51.356;12.458;2023-03-01T17:46:18;3.40;60.20
65034;DHT22;51601;51.356;12.458;2023-03-01T17:50:42;3.30;60.40
65034;DHT22;51601;51.356;12.458;2023-03-01T17:55:07;3.20;60.60
65034;DHT22;51601;51.356;12.458;2023-03-01T17:59:31;3.20;60.70
65034;DHT22;51601;51.356;12.458;2023-03-01T18:03:56;3.10;60.80
65034;DHT22;51601;51.356;12.458;2023-03-01T18:08:21;3.00;60.90
65034;DHT22;51601;51.356;12.458;2023-03-01T18:12:45;2.90;61.00
65034;DHT22;51601;51.356;12.458;2023-03-01T18:17:09;2.90;61.10
65034;DHT22;51601;51.356;12.458;2023-03-01T18:21:35;2.80;61.20
65034;DHT22;51601;51.356;12.458;2023-03-01T18:26:00;2.70;61.30
65034;DHT22;51601;51.356;12.458;2023-03-01T18:30:25;2.70;61.60
65034;DHT22;51601;51.356;12.458;2023-03-01T18:34:49;2.60;61.80
65034;DHT22;51601;51.356;12.458;2023-03-01T18:39:15;2.50;62.00
65034;DHT22;51601;51.356;12.458;2023-03-01T18:43:39;2.50;62.20
65034;DHT22;51601;51.356;12.458;2023-03-01T18:48:04;2.40;62.40
65034;DHT22;51601;51.356;12.458;2023-03-01T18:52:28;2.30;62.60
65034;DHT22;51601;51.356;12.458;2023-03-01T18:56:53;2.30;62.90
65034;DHT22;51601;51.356;12.458;2023-03-01T19:01:19;2.20;62.90
65034;DHT22;51601;51.356;12.458;2023-03-01T19:05:43;2.20;63.00
65034;DHT22;51601;51.356;12.458;2023-03-01T19:10:09;2.10;63.10
65034;DHT22;51601;51.356;12.458;2023-03-01T19:14:35;2.10;63.20
65034;DHT22;51601;51.356;12.458;2023-03-01T19:19:01;2.10;63.30
65034;DHT22;51601;51.356;12.458;2023-03-01T19:23:26;2.00;63.40
65034;DHT22;51601;51.356;12.458;2023-03-01T19:27:50;1.90;63.40
65034;DHT22;51601;51.356;12.458;2023-03-01T19:32:15;1.90;63.40
65034;DHT22;51601;51.356;12.458;2023-03-01T19:36:40;1.90;63.40
65034;DHT22;51601;51.356;12.458;2023-03-01T19:41:06;1.90;63.30
65034;DHT22;51601;51.356;12.458;2023-03-01T19:45:30;1.90;63.30
65034;DHT22;51601;51.356;12.458;2023-03-01T19:49:56;1.90;63.40
65034;DHT22;51601;51.356;12.458;2023-03-01T19:54:21;1.90;63.40
65034;DHT22;51601;51.356;12.458;2023-03-01T19:58:45;1.80;63.40
65034;DHT22;51601;51.356;12.458;2023-03-01T20:03:11;1.80;63.40
65034;DHT22;51601;51.356;12.458;2023-03-01T20:07:38;1.70;63.40
65034;DHT22;51601;51.356;12.458;2023-03-01T20:12:02;1.70;63.50
65034;DHT22;51601;51.356;12.458;2023-03-01T20:16:27;1.70;63.40
65034;DHT22;51601;51.356;12.458;2023-03-01T20:20:52;1.70;63.50
65034;DHT22;51601;51.356;12.458;2023-03-01T20:25:21;1.70;63.40
65034;DHT22;51601;51.356;12.458;2023-03-01T20:29:46;1.60;63.50
65034;DHT22;51601;51.356;12.458;2023-03-01T20:34:11;1.60;63.60
65034;DHT22;51601;51.356;12.458;2023-03-01T20:38:35;1.50;63.70
65034;DHT22;51601;51.356;12.458;2023-03-01T20:42:57;1.50;63.90
65034;DHT22;51601;51.356;12.458;2023-03-01T20:47:25;1.40;64.00
65034;DHT22;51601;51.356;12.458;2023-03-01T20:51:50;1.40;64.20
65034;DHT22;51601;51.356;12.458;2023-03-01T20:56:19;1.30;64.40
65034;DHT22;51601;51.356;12.458;2023-03-01T21:00:57;1.30;64.60
65034;DHT22;51601;51.356;12.458;2023-03-01T21:05:25;1.30;64.80
65034;DHT22;51601;51.356;12.458;2023-03-01T21:09:54;1.20;64.70
65034;DHT22;51601;51.356;12.458;2023-03-01T21:14:21;1.20;64.90
65034;DHT22;51601;51.356;12.458;2023-03-01T21:18:49;1.10;65.10
65034;DHT22;51601;51.356;12.458;2023-03-01T21:23:18;1.10;65.30
65034;DHT22;51601;51.356;12.458;2023-03-01T21:27:47;1.10;65.40
65034;DHT22;51601;51.356;12.458;2023-03-01T21:32:11;1.10;65.50
65034;DHT22;51601;51.356;12.458;2023-03-01T21:36:37;1.10;65.60
65034;DHT22;51601;51.356;12.458;2023-03-01T21:41:04;1.10;65.70
65034;DHT22;51601;51.356;12.458;2023-03-01T21:45:28;1.00;65.70
65034;DHT22;51601;51.356;12.458;2023-03-01T21:49:53;1.00;65.80
65034;DHT22;51601;51.356;12.458;2023-03-01T21:54:19;1.00;65.90
65034;DHT22;51601;51.356;12.458;2023-03-01T21:58:47;0.90;65.90
65034;DHT22;51601;51.356;12.458;2023-03-01T22:03:11;0.90;66.00
65034;DHT22;51601;51.356;12.458;2023-03-01T22:07:42;0.90;66.00
65034;DHT22;51601;51.356;12.458;2023-03-01T22:12:28;0.80;66.00
65034;DHT22;51601;51.356;12.458;2023-03-01T22:16:53;0.80;66.20
65034;DHT22;51601;51.356;12.458;2023-03-01T22:21:18;0.70;66.30
65034;DHT22;51601;51.356;12.458;2023-03-01T22:25:48;0.70;66.50
65034;DHT22;51601;51.356;12.458;2023-03-01T22:30:19;0.70;66.60
65034;DHT22;51601;51.356;12.458;2023-03-01T22:34:43;0.60;66.80
65034;DHT22;51601;51.356;12.458;2023-03-01T22:39:10;0.50;66.90
65034;DHT22;51601;51.356;12.458;2023-03-01T22:43:39;0.50;67.20
65034;DHT22;51601;51.356;12.458;2023-03-01T22:48:05;0.40;67.30
65034;DHT22;51601;51.356;12.458;2023-03-01T22:52:35;0.30;67.50
65034;DHT22;51601;51.356;12.458;2023-03-01T22:57:01;0.30;67.70
65034;DHT22;51601;51.356;12.458;2023-03-01T23:01:28;0.10;68.00
65034;DHT22;51601;51.356;12.458;2023-03-01T23:05:54;0.00;68.20
65034;DHT22;51601;51.356;12.458;2023-03-01T23:10:19;0.00;68.60
65034;DHT22;51601;51.356;12.458;2023-03-01T23:14:43;-0.10;68.80
65034;DHT22;51601;51.356;12.458;2023-03-01T23:19:07;-0.20;69.00
65034;DHT22;51601;51.356;12.458;2023-03-01T23:23:33;-0.30;69.40
65034;DHT22;51601;51.356;12.458;2023-03-01T23:27:58;-0.30;69.70
65034;DHT22;51601;51.356;12.458;2023-03-01T23:32:22;-0.30;70.00
65034;DHT22;51601;51.356;12.458;2023-03-01T23:36:46;-0.40;70.10
65034;DHT22;51601;51.356;12.458;2023-03-01T23:41:13;-0.40;70.40
65034;DHT22;51601;51.356;12.458;2023-03-01T23:45:36;-0.40;70.60
65034;DHT22;51601;51.356;12.458;2023-03-01T23:50:05;-0.40;70.60
65034;DHT22;51601;51.356;12.458;2023-03-01T23:54:29;-0.40;70.70
65034;DHT22;51601;51.356;12.458;2023-03-01T23:58:57;-0.40;70.90
